Hitachimaru — JD2063 — position and weather

sailwx.info

Track history (hours):
 
Tides and Currents Weather Stations Pressure Air Temp Water Temp Dewpoint Dewpoint Depression Visibility Wind Speed Wind Dir Waves Ship Positions

Hitachimaru

Last reported at 2014-Sep-21 03:26 UTC. Time now 2014-Sep-22 00:14 UTC.
Position N 34°06' E 135°00'.

Length 83 m; draft 4.5 m.

Type: Cargo ship. MMSI: 431301756.

Date/timePositionNaut miles runAvg speedWind from/ knotsBaromVisibWave heightAir tempDewpointWater temp
2014-Sep-21 03:26N 34°06' E 135°00'2211.6
2014-Sep-21 01:33N 34°27' E 135°08'1211.7
2014-Sep-21 00:33N 34°34' E 135°19'6 0.8
2014-Sep-20 16:04N 34°34' E 135°27'0 0.6
2014-Sep-20 15:33N 34°34' E 135°27'0 0.0
2014-Sep-20 06:30N 34°34' E 135°27'2 1.7
2014-Sep-20 05:34N 34°35' E 135°28'0 0.0
2014-Sep-19 23:21N 34°35' E 135°28'0 0.0
2014-Sep-19 22:33N 34°35' E 135°28'2 1.5
2014-Sep-19 21:33N 34°34' E 135°27'0 0.0
2014-Sep-19 19:06N 34°34' E 135°27'2 3.2
2014-Sep-19 18:33N 34°35' E 135°26'2 2.2
2014-Sep-19 17:26N 34°35' E 135°23'0 0.0
2014-Sep-19 16:32N 34°35' E 135°23'0 0.0
2014-Sep-19 15:26N 34°35' E 135°23'1 1.5
2014-Sep-19 14:33N 34°35' E 135°21'1312.9
2014-Sep-19 13:33N 34°35' E 135°06'1312.9
2014-Sep-19 12:33N 34°38' E 134°50'3 0.1
2014-Sep-17 21:06N 34°37' E 134°55'611.3
2014-Sep-17 20:33N 34°37' E 135°02'1010.1
2014-Sep-17 19:33N 34°27' E 135°03'1211.4
2014-Sep-17 18:29N 34°15' E 134°59'1111.5
2014-Sep-17 17:32N 34°04' E 135°00'24410.1
2014-Sep-16 17:25N 35°12' E 139°46'1011.6
2014-Sep-16 16:34N 35°21' E 139°42'7 6.7
2014-Sep-16 15:33N 35°22' E 139°51'0 0.2
2014-Sep-16 13:22N 35°22' E 139°51'0 0.0
2014-Sep-16 12:31N 35°22' E 139°51'0 0.0
2014-Sep-16 11:31N 35°22' E 139°51'0 0.0
2014-Sep-16 10:31N 35°22' E 139°51'0 0.0
2014-Sep-16 09:31N 35°22' E 139°51'0 0.0
2014-Sep-16 08:31N 35°22' E 139°51'0 0.0
2014-Sep-16 07:30N 35°22' E 139°51'7 7.4
2014-Sep-16 06:33N 35°29' E 139°50'1211.9
2014-Sep-16 05:33N 35°39' E 139°58'3 2.6
2014-Sep-16 04:29N 35°41' E 139°57'0 0.0
2014-Sep-16 03:29N 35°41' E 139°57'0 0.0
2014-Sep-16 02:29N 35°41' E 139°57'0 0.0
2014-Sep-16 01:32N 35°41' E 139°57'0 0.0
2014-Sep-16 00:32N 35°41' E 139°57'0 0.0
2014-Sep-15 23:31N 35°41' E 139°57'0 0.0
2014-Sep-15 22:28N 35°41' E 139°57'0 0.0
2014-Sep-15 21:22N 35°41' E 139°57'0 0.0
2014-Sep-15 20:31N 35°41' E 139°57'0 0.0
2014-Sep-15 19:31N 35°41' E 139°57'0 0.0
2014-Sep-15 18:28N 35°41' E 139°57'0 0.0
2014-Sep-15 17:28N 35°41' E 139°57'0 0.0
2014-Sep-15 16:31N 35°41' E 139°57'0 0.0
2014-Sep-15 15:31N 35°41' E 139°57'0 0.0
2014-Sep-15 14:33N 35°41' E 139°57'1 0.9
2014-Sep-15 13:30N 35°40' E 139°57'0 0.0
2014-Sep-15 12:30N 35°40' E 139°57'0 0.0
2014-Sep-15 11:30N 35°40' E 139°57'0 0.0
2014-Sep-15 10:30N 35°40' E 139°57'1 1.3
2014-Sep-15 09:33N 35°39' E 139°58'10 9.5
2014-Sep-15 08:33N 35°30' E 139°53'1211.8
2014-Sep-15 07:33N 35°21' E 139°45'1110.9
2014-Sep-15 06:33N 35°10' E 139°46'244 9.3
2014-Sep-14 04:18N 34°08' E 134°60'911.2
2014-Sep-14 03:28N 34°18' E 134°59'1210.6
2014-Sep-14 02:21N 34°27' E 135°08'1011.9
2014-Sep-14 01:33N 34°33' E 135°17'8 0.4
2014-Sep-13 06:33N 34°34' E 135°27'1 1.4
2014-Sep-13 05:33N 34°35' E 135°28'0 0.0
2014-Sep-13 04:33N 34°35' E 135°28'0 0.0
2014-Sep-13 03:33N 34°35' E 135°28'0 0.0
2014-Sep-13 02:33N 34°35' E 135°28'0 0.0
2014-Sep-13 01:27N 34°35' E 135°28'0 0.0
2014-Sep-13 00:27N 34°35' E 135°28'0 0.1
2014-Sep-12 23:33N 34°35' E 135°28'0 0.0
2014-Sep-12 22:33N 34°35' E 135°28'2 1.5
2014-Sep-12 21:32N 34°34' E 135°27'0 0.0
2014-Sep-12 20:28N 34°34' E 135°27'0 0.0
2014-Sep-12 19:10N 34°34' E 135°27'0 0.0
2014-Sep-12 18:15N 34°34' E 135°27'0 0.0
2014-Sep-12 17:27N 34°34' E 135°27'0 0.0
2014-Sep-12 16:27N 34°34' E 135°27'0 0.0
2014-Sep-12 15:33N 34°34' E 135°27'4 3.8
2014-Sep-12 14:33N 34°36' E 135°23'0 0.0
2014-Sep-12 13:28N 34°36' E 135°23'0 0.0
2014-Sep-12 12:28N 34°36' E 135°23'0 0.0
2014-Sep-12 11:28N 34°36' E 135°23'2 2.0
2014-Sep-12 10:33N 34°35' E 135°21'1212.1
2014-Sep-12 09:33N 34°34' E 135°06'1313.2
2014-Sep-12 08:33N 34°38' E 134°51'  
Track history (hours):
 
Tides and Currents Weather Stations Pressure Air Temp Water Temp Dewpoint Dewpoint Depression Visibility Wind Speed Wind Dir Waves Ship Positions

Hitachimaru

Last reported at 2014-Sep-21 03:26 UTC. Time now 2014-Sep-22 00:14 UTC.
Position N 34°06' E 135°00'.

Length 83 m; draft 4.5 m.

Type: Cargo ship. MMSI: 431301756.

Date/timePositionNaut miles runAvg speedWind from/ knotsBaromVisibWave heightAir tempDewpointWater temp
2014-Sep-21 03:26N 34°06' E 135°00'2211.6
2014-Sep-21 01:33N 34°27' E 135°08'1211.7
2014-Sep-21 00:33N 34°34' E 135°19'6 0.8
2014-Sep-20 16:04N 34°34' E 135°27'0 0.6
2014-Sep-20 15:33N 34°34' E 135°27'0 0.0
2014-Sep-20 06:30N 34°34' E 135°27'2 1.7
2014-Sep-20 05:34N 34°35' E 135°28'0 0.0
2014-Sep-19 23:21N 34°35' E 135°28'0 0.0
2014-Sep-19 22:33N 34°35' E 135°28'2 1.5
2014-Sep-19 21:33N 34°34' E 135°27'0 0.0
2014-Sep-19 19:06N 34°34' E 135°27'2 3.2
2014-Sep-19 18:33N 34°35' E 135°26'2 2.2
2014-Sep-19 17:26N 34°35' E 135°23'0 0.0
2014-Sep-19 16:32N 34°35' E 135°23'0 0.0
2014-Sep-19 15:26N 34°35' E 135°23'1 1.5
2014-Sep-19 14:33N 34°35' E 135°21'1312.9
2014-Sep-19 13:33N 34°35' E 135°06'1312.9
2014-Sep-19 12:33N 34°38' E 134°50'3 0.1
2014-Sep-17 21:06N 34°37' E 134°55'611.3
2014-Sep-17 20:33N 34°37' E 135°02'1010.1
2014-Sep-17 19:33N 34°27' E 135°03'1211.4
2014-Sep-17 18:29N 34°15' E 134°59'1111.5
2014-Sep-17 17:32N 34°04' E 135°00'24410.1
2014-Sep-16 17:25N 35°12' E 139°46'1011.6
2014-Sep-16 16:34N 35°21' E 139°42'7 6.7
2014-Sep-16 15:33N 35°22' E 139°51'0 0.2
2014-Sep-16 13:22N 35°22' E 139°51'0 0.0
2014-Sep-16 12:31N 35°22' E 139°51'0 0.0
2014-Sep-16 11:31N 35°22' E 139°51'0 0.0
2014-Sep-16 10:31N 35°22' E 139°51'0 0.0
2014-Sep-16 09:31N 35°22' E 139°51'0 0.0
2014-Sep-16 08:31N 35°22' E 139°51'0 0.0
2014-Sep-16 07:30N 35°22' E 139°51'7 7.4
2014-Sep-16 06:33N 35°29' E 139°50'1211.9
2014-Sep-16 05:33N 35°39' E 139°58'3 2.6
2014-Sep-16 04:29N 35°41' E 139°57'0 0.0
2014-Sep-16 03:29N 35°41' E 139°57'0 0.0
2014-Sep-16 02:29N 35°41' E 139°57'0 0.0
2014-Sep-16 01:32N 35°41' E 139°57'0 0.0
2014-Sep-16 00:32N 35°41' E 139°57'0 0.0
2014-Sep-15 23:31N 35°41' E 139°57'0 0.0
2014-Sep-15 22:28N 35°41' E 139°57'0 0.0
2014-Sep-15 21:22N 35°41' E 139°57'0 0.0
2014-Sep-15 20:31N 35°41' E 139°57'0 0.0
2014-Sep-15 19:31N 35°41' E 139°57'0 0.0
2014-Sep-15 18:28N 35°41' E 139°57'0 0.0
2014-Sep-15 17:28N 35°41' E 139°57'0 0.0
2014-Sep-15 16:31N 35°41' E 139°57'0 0.0
2014-Sep-15 15:31N 35°41' E 139°57'0 0.0
2014-Sep-15 14:33N 35°41' E 139°57'1 0.9
2014-Sep-15 13:30N 35°40' E 139°57'0 0.0
2014-Sep-15 12:30N 35°40' E 139°57'0 0.0
2014-Sep-15 11:30N 35°40' E 139°57'0 0.0
2014-Sep-15 10:30N 35°40' E 139°57'1 1.3
2014-Sep-15 09:33N 35°39' E 139°58'10 9.5
2014-Sep-15 08:33N 35°30' E 139°53'1211.8
2014-Sep-15 07:33N 35°21' E 139°45'1110.9
2014-Sep-15 06:33N 35°10' E 139°46'244 9.3
2014-Sep-14 04:18N 34°08' E 134°60'911.2
2014-Sep-14 03:28N 34°18' E 134°59'1210.6
2014-Sep-14 02:21N 34°27' E 135°08'1011.9
2014-Sep-14 01:33N 34°33' E 135°17'8 0.4
2014-Sep-13 06:33N 34°34' E 135°27'1 1.4
2014-Sep-13 05:33N 34°35' E 135°28'0 0.0
2014-Sep-13 04:33N 34°35' E 135°28'0 0.0
2014-Sep-13 03:33N 34°35' E 135°28'0 0.0
2014-Sep-13 02:33N 34°35' E 135°28'0 0.0
2014-Sep-13 01:27N 34°35' E 135°28'0 0.0
2014-Sep-13 00:27N 34°35' E 135°28'0 0.1
2014-Sep-12 23:33N 34°35' E 135°28'0 0.0
2014-Sep-12 22:33N 34°35' E 135°28'2 1.5
2014-Sep-12 21:32N 34°34' E 135°27'0 0.0
2014-Sep-12 20:28N 34°34' E 135°27'0 0.0
2014-Sep-12 19:10N 34°34' E 135°27'0 0.0
2014-Sep-12 18:15N 34°34' E 135°27'0 0.0
2014-Sep-12 17:27N 34°34' E 135°27'0 0.0
2014-Sep-12 16:27N 34°34' E 135°27'0 0.0
2014-Sep-12 15:33N 34°34' E 135°27'4 3.8
2014-Sep-12 14:33N 34°36' E 135°23'0 0.0
2014-Sep-12 13:28N 34°36' E 135°23'0 0.0
2014-Sep-12 12:28N 34°36' E 135°23'0 0.0
2014-Sep-12 11:28N 34°36' E 135°23'2 2.0
2014-Sep-12 10:33N 34°35' E 135°21'1212.1
2014-Sep-12 09:33N 34°34' E 135°06'1313.2
2014-Sep-12 08:33N 34°38' E 134°51'  

Dump ship's entire track history